Αρχική σελίδα
METAR-TAF:

METAR-TAF

Αεροδρόμια :

Εσμεράλδας, Ισημερινός

γεωγραφικό πλάτος: 00-58-43N, γεωγραφικό μήκος: 079-37-36W, υψόμετρο: 10 μ

Παρών καιρός

Η αναφορά έγινε 1 ώρα και 47 λεπτά πριν, στις 19:00 UTC
Άνεμος 7 kt από Δ/BΔ, μεταβλητός μεταξύ Δ/ΝΔ και Β/BΔ
Θερμοκρασία 30°C
Υγρασία 75%
Πίεση 1012 hPa
Ορατότητα 10 χλμ και άνω
Λίγα νέφη σε ύψος 2600 πόδια
Διάσπαρτα νέφη σε ύψος 10000 πόδια

METAR: SETN 191900Z 29007KT 250V340 9999 FEW026 SCT100 30/25 Q1011 RNK A2987

Χρόνος: 15:47 (20:47 UTC)


TAF: λείπει

Μετεωρολογικές αναφορές και προγνώσεις για περισσότερα από 4000 αεροδρόμια (δελτία METAR και TAF).

Οι διαθέσιμοι σταθμοί απεικονίζονται στο χάρτη με κίτρινες και κόκκινες κουκκίδες.

Μετακινήστε το ποντίκι πάνω από τις κουκκίδες για να δείτε το όνομα του σταθμού.

Στη συνέχεια, κάντε κλικ για να δείτε τις μετεωρολογικές αναφορές και τις προγνώσεις καιρού.

Για να αλλάξετε το χάρτη: κάντε κλικ στα πράσινα κουμπιά με τον μαύρο σταυρό για να ζουμάρετε, στο πράσινο κουμπί με την παύλα για να αφαιρέσετε το ζουμ ή στα πράσινα βέλη για να αντιπαραβάλλετε χάρτες.


METAR-TAF: